Time;durP1;ratioP1;P1;durP2;ratioP2;P2;SDS_P1;SDS_P2;PMS_P1;PMS_P2;Temp;Humidity;BMP_temperature;BMP_pressure;BME280_temperature;BME280_humidity;BME280_pressure;Samples;Min_cycle;Max_cycle;Signal;HPM_P1;HPM_P2
2021/11/22 00:01:52;;;;;;;38.27;19.03;;;7.00;99.90;;;;;;5091346;28;20226;-80
2021/11/22 00:04:17;;;;;;;38.97;18.93;;;7.10;99.90;;;;;;5092714;28;20643;-80
2021/11/22 00:06:43;;;;;;;44.03;19.90;;;7.10;99.90;;;;;;5092551;28;20228;-79
2021/11/22 00:09:09;;;;;;;37.60;19.20;;;7.10;99.90;;;;;;5092551;28;20183;-80
2021/11/22 00:11:35;;;;;;;33.03;17.30;;;7.10;99.90;;;;;;5092931;28;20677;-79
2021/11/22 00:14:01;;;;;;;36.47;19.20;;;7.00;99.90;;;;;;5091610;28;20265;-79
2021/11/22 00:16:26;;;;;;;35.80;18.27;;;7.00;99.90;;;;;;5074667;28;20183;-86
2021/11/22 00:18:52;;;;;;;40.07;18.53;;;7.10;99.90;;;;;;5091633;28;20210;-79
2021/11/22 00:21:18;;;;;;;34.23;16.90;;;7.00;99.90;;;;;;5092902;28;20186;-79
2021/11/22 00:23:44;;;;;;;38.87;19.83;;;7.00;99.90;;;;;;5091135;28;20631;-80
2021/11/22 00:26:09;;;;;;;36.43;18.33;;;7.00;99.90;;;;;;5092713;28;20232;-80
2021/11/22 00:28:35;;;;;;;32.83;16.83;;;7.00;99.90;;;;;;5091028;28;20634;-80
2021/11/22 00:31:01;;;;;;;38.30;18.77;;;7.00;99.90;;;;;;5091542;28;20186;-79
2021/11/22 00:33:26;;;;;;;45.27;19.53;;;7.00;99.90;;;;;;5092778;28;20238;-79
2021/11/22 00:35:53;;;;;;;61.50;24.07;;;7.00;99.90;;;;;;5091013;28;20269;-80
2021/11/22 00:38:19;;;;;;;55.03;24.23;;;7.00;99.90;;;;;;5092762;28;20190;-80
2021/11/22 00:40:45;;;;;;;59.50;23.93;;;7.00;99.90;;;;;;5092330;28;20186;-80
2021/11/22 00:43:11;;;;;;;50.10;22.80;;;7.00;99.90;;;;;;5092936;28;20669;-80
2021/11/22 00:45:38;;;;;;;50.47;22.03;;;7.00;99.90;;;;;;5091229;28;20183;-79
2021/11/22 00:48:04;;;;;;;55.40;23.20;;;7.00;99.90;;;;;;5091580;28;20645;-80
2021/11/22 00:50:31;;;;;;;61.10;23.77;;;6.90;99.90;;;;;;5092441;28;20253;-86
2021/11/22 00:52:57;;;;;;;61.87;26.47;;;6.90;99.90;;;;;;5092450;28;20587;-80
2021/11/22 00:55:23;;;;;;;59.83;25.43;;;7.00;99.90;;;;;;5093734;28;20252;-80
2021/11/22 00:57:49;;;;;;;63.17;27.10;;;7.00;99.90;;;;;;5093010;28;20647;-78
2021/11/22 01:00:18;;;;;;;54.53;25.37;;;7.00;99.90;;;;;;5091788;28;20240;-80
2021/11/22 01:02:45;;;;;;;51.07;24.40;;;6.90;99.90;;;;;;5093103;28;20209;-80
2021/11/22 01:05:11;;;;;;;56.17;25.73;;;7.00;99.90;;;;;;5092973;28;20182;-80
2021/11/22 01:07:37;;;;;;;55.57;24.70;;;6.90;99.90;;;;;;5092656;28;20234;-81
2021/11/22 01:10:05;;;;;;;66.53;27.47;;;6.90;99.90;;;;;;5096227;28;20178;-80
2021/11/22 01:12:31;;;;;;;60.87;26.37;;;6.90;99.90;;;;;;5094893;28;20243;-80
2021/11/22 01:14:59;;;;;;;61.03;26.43;;;6.90;99.90;;;;;;5094656;28;20221;-80
2021/11/22 01:17:25;;;;;;;61.47;25.80;;;6.90;99.90;;;;;;5094919;28;20185;-78
2021/11/22 01:19:53;;;;;;;65.37;27.23;;;7.00;99.90;;;;;;5095617;28;20218;-80
2021/11/22 01:22:23;;;;;;;53.60;25.30;;;7.00;99.90;;;;;;5096029;28;20193;-81
2021/11/22 01:24:49;;;;;;;58.20;25.17;;;6.90;99.90;;;;;;5095883;28;20174;-78
2021/11/22 01:27:15;;;;;;;56.60;25.50;;;6.90;99.90;;;;;;5094593;28;20174;-80
2021/11/22 01:29:41;;;;;;;51.53;23.00;;;6.90;99.90;;;;;;5095677;28;20231;-81
2021/11/22 01:32:07;;;;;;;49.10;23.47;;;6.90;99.90;;;;;;5095677;28;20174;-81
2021/11/22 01:34:33;;;;;;;51.93;23.10;;;6.90;99.90;;;;;;5094689;28;20308;-80
2021/11/22 01:37:00;;;;;;;54.47;23.97;;;6.90;99.90;;;;;;5095320;28;20261;-80
2021/11/22 01:39:25;;;;;;;51.30;23.97;;;6.90;99.90;;;;;;5094267;28;20233;-80
2021/11/22 01:41:51;;;;;;;53.10;22.57;;;6.90;99.90;;;;;;5095514;28;20615;-79
2021/11/22 01:44:17;;;;;;;52.53;23.80;;;6.90;99.90;;;;;;5094423;28;20521;-80
2021/11/22 01:46:46;;;;;;;51.70;22.93;;;6.90;99.90;;;;;;5095288;28;20175;-80
2021/11/22 01:49:12;;;;;;;53.17;24.27;;;6.90;99.90;;;;;;5095597;28;20182;-80
2021/11/22 01:51:37;;;;;;;51.23;23.63;;;6.90;99.90;;;;;;5095044;28;20223;-82
2021/11/22 01:54:03;;;;;;;49.23;24.33;;;6.90;99.90;;;;;;5095263;28;20643;-81
2021/11/22 01:56:29;;;;;;;53.90;23.90;;;6.90;99.90;;;;;;5095225;28;20233;-79
2021/11/22 01:58:55;;;;;;;50.20;24.07;;;6.90;99.90;;;;;;5094714;28;20213;-79
2021/11/22 02:01:21;;;;;;;53.77;23.83;;;6.90;99.90;;;;;;5095299;28;20185;-79
2021/11/22 02:03:47;;;;;;;52.07;24.33;;;6.90;99.90;;;;;;5095179;28;20174;-79
2021/11/22 02:06:13;;;;;;;49.30;23.93;;;6.90;99.90;;;;;;5095124;28;20223;-79
2021/11/22 02:08:39;;;;;;;48.57;23.97;;;6.90;99.90;;;;;;5094676;28;20692;-85
2021/11/22 02:11:05;;;;;;;49.33;25.13;;;6.90;99.90;;;;;;5094979;28;20178;-79
2021/11/22 02:13:32;;;;;;;51.47;23.03;;;6.90;99.90;;;;;;5094077;28;20202;-79
2021/11/22 02:15:58;;;;;;;54.60;25.43;;;6.90;99.90;;;;;;5093644;28;20183;-79
2021/11/22 02:18:24;;;;;;;51.93;26.73;;;6.90;99.90;;;;;;5094731;28;20194;-79
2021/11/22 02:20:49;;;;;;;57.50;26.63;;;7.00;99.90;;;;;;5094739;28;20182;-79
2021/11/22 02:23:16;;;;;;;57.30;25.07;;;7.00;99.90;;;;;;5094625;28;20244;-79
2021/11/22 02:25:44;;;;;;;49.43;24.10;;;7.00;99.90;;;;;;5094570;28;20283;-80
2021/11/22 02:28:11;;;;;;;50.10;24.00;;;6.90;99.90;;;;;;5094997;28;20265;-79
2021/11/22 02:30:42;;;;;;;51.10;23.57;;;6.90;99.90;;;;;;5094578;28;20704;-80
2021/11/22 02:33:11;;;;;;;53.37;24.33;;;6.90;99.90;;;;;;5094625;28;20221;-79
2021/11/22 02:35:41;;;;;;;51.27;23.77;;;6.90;99.90;;;;;;5094576;28;20193;-80
2021/11/22 02:38:07;;;;;;;57.13;24.10;;;6.90;99.90;;;;;;5094072;28;20251;-79
2021/11/22 02:40:33;;;;;;;51.53;25.40;;;6.90;99.90;;;;;;5094676;28;20186;-80
2021/11/22 02:42:59;;;;;;;56.47;25.50;;;6.90;99.90;;;;;;5094279;28;20183;-80
2021/11/22 02:45:25;;;;;;;50.10;25.27;;;6.90;99.90;;;;;;5093034;28;20174;-80
2021/11/22 02:47:51;;;;;;;53.83;25.13;;;6.80;99.90;;;;;;5093801;28;20183;-81
2021/11/22 02:50:21;;;;;;;70.57;29.53;;;6.90;99.90;;;;;;5094079;28;20257;-80
2021/11/22 02:52:48;;;;;;;80.97;32.63;;;6.80;99.90;;;;;;5093736;28;20175;-80
2021/11/22 02:55:17;;;;;;;92.67;34.77;;;6.90;99.90;;;;;;5094258;28;20274;-80
2021/11/22 02:57:42;;;;;;;92.17;34.43;;;6.80;99.90;;;;;;5093877;28;20175;-80
2021/11/22 03:00:15;;;;;;;74.60;29.50;;;7.00;99.90;;;;;;5092551;28;20190;-80
2021/11/22 03:02:44;;;;;;;89.83;33.33;;;6.80;99.90;;;;;;5094341;28;20211;-79
2021/11/22 03:05:11;;;;;;;78.00;31.37;;;6.80;99.90;;;;;;5092556;28;20263;-80
2021/11/22 03:07:37;;;;;;;83.97;30.97;;;6.80;99.90;;;;;;5094236;28;20226;-80
2021/11/22 03:10:05;;;;;;;75.83;31.27;;;6.80;99.90;;;;;;5092384;28;20231;-80
2021/11/22 03:12:31;;;;;;;90.07;31.83;;;6.80;99.90;;;;;;5092621;28;20639;-80
2021/11/22 03:14:57;;;;;;;87.57;32.97;;;6.80;99.90;;;;;;5092453;28;20269;-80
2021/11/22 03:17:23;;;;;;;83.13;32.40;;;6.80;99.90;;;;;;5094219;28;20220;-80
2021/11/22 03:19:48;;;;;;;79.43;31.57;;;6.80;99.90;;;;;;5093218;28;20213;-80
2021/11/22 03:22:14;;;;;;;85.63;29.27;;;6.80;99.90;;;;;;5092519;28;20725;-80
2021/11/22 03:24:40;;;;;;;65.60;27.13;;;6.80;99.90;;;;;;5093987;28;20182;-80
2021/11/22 03:27:06;;;;;;;65.57;27.47;;;6.80;99.90;;;;;;5092170;28;20209;-80
2021/11/22 03:29:32;;;;;;;59.67;25.87;;;6.80;99.90;;;;;;5093610;28;20217;-80
2021/11/22 03:31:58;;;;;;;62.73;25.13;;;6.80;99.90;;;;;;5092596;28;20210;-80
2021/11/22 03:34:25;;;;;;;55.07;24.77;;;6.80;99.90;;;;;;5093180;28;20174;-80
2021/11/22 03:36:51;;;;;;;50.07;24.80;;;6.80;99.90;;;;;;5093545;28;20189;-80
2021/11/22 03:39:24;;;;;;;54.50;24.10;;;6.80;99.90;;;;;;5093380;28;20202;-80
2021/11/22 03:41:51;;;;;;;56.43;24.50;;;6.70;99.90;;;;;;5093384;28;20205;-86
2021/11/22 03:44:17;;;;;;;47.63;22.50;;;6.70;99.90;;;;;;5093340;28;20186;-80
2021/11/22 03:46:50;;;;;;;50.87;23.60;;;6.70;99.90;;;;;;5075225;28;20595;-80
2021/11/22 03:49:17;;;;;;;47.10;22.83;;;6.80;99.90;;;;;;5093433;28;20178;-80
2021/11/22 03:51:43;;;;;;;47.87;21.93;;;6.70;99.90;;;;;;5092262;28;20213;-79
2021/11/22 03:54:10;;;;;;;46.57;23.90;;;6.70;99.90;;;;;;5093053;28;20233;-80
2021/11/22 03:56:37;;;;;;;50.23;23.57;;;6.70;99.90;;;;;;5091990;28;20265;-80
2021/11/22 03:59:03;;;;;;;49.87;22.97;;;6.70;99.90;;;;;;5091677;28;20210;-80
2021/11/22 04:01:29;;;;;;;54.40;23.63;;;6.70;99.90;;;;;;5093047;28;20178;-80
2021/11/22 04:03:55;;;;;;;52.63;23.13;;;6.70;99.90;;;;;;5092944;28;20532;-80
2021/11/22 04:06:21;;;;;;;57.73;23.30;;;6.70;99.90;;;;;;5092800;28;20320;-80
2021/11/22 04:08:46;;;;;;;47.73;22.77;;;6.60;99.90;;;;;;5091909;28;20597;-80
2021/11/22 04:11:12;;;;;;;51.00;22.90;;;6.60;99.90;;;;;;5091386;28;20197;-80
2021/11/22 04:13:38;;;;;;;50.03;23.23;;;6.70;99.90;;;;;;5075202;28;20226;-80
2021/11/22 04:16:05;;;;;;;78.90;28.53;;;6.60;99.90;;;;;;5093154;28;20311;-80
2021/11/22 04:18:32;;;;;;;94.40;29.23;;;6.70;99.90;;;;;;5091737;28;20225;-80
2021/11/22 04:20:58;;;;;;;74.20;28.53;;;6.60;99.90;;;;;;5091642;28;20358;-80
2021/11/22 04:23:24;;;;;;;65.63;26.60;;;6.60;99.90;;;;;;5091764;28;20189;-80
2021/11/22 04:25:50;;;;;;;66.63;26.50;;;6.60;99.90;;;;;;5092786;28;20267;-80
2021/11/22 04:28:16;;;;;;;67.20;26.63;;;6.60;99.90;;;;;;5092471;28;20658;-79
2021/11/22 04:30:42;;;;;;;61.30;24.47;;;6.60;99.90;;;;;;5092774;28;20185;-79
2021/11/22 04:33:08;;;;;;;68.13;27.37;;;6.60;99.90;;;;;;5092970;28;20178;-79
2021/11/22 04:35:34;;;;;;;65.50;26.67;;;6.70;99.90;;;;;;5093262;28;20175;-79
2021/11/22 04:38:00;;;;;;;61.83;25.33;;;6.60;99.90;;;;;;5092469;28;20198;-79
2021/11/22 04:40:26;;;;;;;53.50;23.23;;;6.60;99.90;;;;;;5093015;28;20269;-79
2021/11/22 04:42:52;;;;;;;62.07;25.60;;;6.60;99.90;;;;;;5094000;28;20261;-79
2021/11/22 04:45:23;;;;;;;55.07;24.03;;;6.60;99.90;;;;;;5096235;28;20559;-80
2021/11/22 04:47:50;;;;;;;53.27;24.33;;;6.60;99.90;;;;;;5095531;28;20178;-80
2021/11/22 04:50:17;;;;;;;64.43;24.13;;;6.60;99.90;;;;;;5096388;28;20231;-80
2021/11/22 04:52:44;;;;;;;58.60;24.03;;;6.60;99.90;;;;;;5095333;28;20520;-80
2021/11/22 04:55:13;;;;;;;50.60;23.13;;;6.60;99.90;;;;;;5096724;28;20197;-80
2021/11/22 04:57:39;;;;;;;46.63;21.83;;;6.50;99.90;;;;;;5094954;28;20225;-79
2021/11/22 05:00:06;;;;;;;46.57;21.77;;;6.60;99.90;;;;;;5095988;28;20202;-80
2021/11/22 05:02:32;;;;;;;49.63;21.87;;;6.50;99.90;;;;;;5095121;28;20531;-79
2021/11/22 05:04:58;;;;;;;42.37;21.40;;;6.50;99.90;;;;;;5096189;28;20243;-80
2021/11/22 05:07:23;;;;;;;45.10;21.23;;;6.50;99.90;;;;;;5094457;28;20258;-80
2021/11/22 05:09:49;;;;;;;50.83;21.97;;;6.50;99.90;;;;;;5095004;28;20187;-80
2021/11/22 05:12:16;;;;;;;67.87;27.43;;;6.50;99.90;;;;;;5094836;28;20183;-79
2021/11/22 05:14:42;;;;;;;82.67;30.93;;;6.50;99.90;;;;;;5094966;28;20179;-80
2021/11/22 05:17:08;;;;;;;80.53;29.87;;;6.60;99.90;;;;;;5095620;28;20285;-81
2021/11/22 05:19:34;;;;;;;60.13;26.63;;;6.60;99.90;;;;;;5096111;28;20718;-80
2021/11/22 05:22:01;;;;;;;65.53;25.97;;;6.60;99.90;;;;;;5095913;28;20182;-80
2021/11/22 05:24:27;;;;;;;58.20;24.70;;;6.50;99.90;;;;;;5094809;28;20182;-79
2021/11/22 05:26:54;;;;;;;60.13;24.87;;;6.50;99.90;;;;;;5077557;28;20182;-79
2021/11/22 05:29:20;;;;;;;55.90;24.40;;;6.50;99.90;;;;;;5094319;28;20189;-79
2021/11/22 05:31:46;;;;;;;49.57;23.00;;;6.50;99.90;;;;;;5095743;28;20175;-79
2021/11/22 05:34:11;;;;;;;43.23;21.93;;;6.50;99.90;;;;;;5095330;28;20178;-79
2021/11/22 05:36:37;;;;;;;45.27;20.97;;;6.50;99.90;;;;;;5095763;28;20197;-79
2021/11/22 05:39:04;;;;;;;45.20;21.60;;;6.50;99.90;;;;;;5094328;28;20297;-84
2021/11/22 05:41:30;;;;;;;41.53;21.37;;;6.40;99.90;;;;;;5095443;28;20186;-79
2021/11/22 05:43:56;;;;;;;47.20;23.10;;;6.40;99.90;;;;;;5094417;28;20182;-79
2021/11/22 05:46:22;;;;;;;44.93;21.27;;;6.50;99.90;;;;;;5095329;28;20194;-79
2021/11/22 05:48:48;;;;;;;41.77;21.47;;;6.40;99.90;;;;;;5095633;28;20182;-79
2021/11/22 05:51:14;;;;;;;43.70;21.23;;;6.40;99.90;;;;;;5095077;28;20179;-79
2021/11/22 05:53:42;;;;;;;43.30;21.63;;;6.40;99.90;;;;;;5093561;28;20210;-79
2021/11/22 05:56:09;;;;;;;39.90;20.80;;;6.40;99.90;;;;;;5093499;28;20536;-80
2021/11/22 05:58:36;;;;;;;42.50;20.70;;;6.50;99.90;;;;;;5093936;28;20213;-80
2021/11/22 06:01:05;;;;;;;45.23;21.73;;;6.50;99.90;;;;;;5089452;28;20193;-80
2021/11/22 06:03:31;;;;;;;43.40;22.20;;;6.40;99.90;;;;;;5093933;28;20183;-79
2021/11/22 06:05:57;;;;;;;47.80;22.90;;;6.50;99.90;;;;;;5092461;28;20242;-80
2021/11/22 06:08:24;;;;;;;42.20;21.07;;;6.40;99.90;;;;;;5072741;28;20191;-81
2021/11/22 06:10:50;;;;;;;43.43;20.67;;;6.50;99.90;;;;;;5089580;28;20198;-81
2021/11/22 06:13:20;;;;;;;42.70;20.43;;;6.40;99.90;;;;;;5088936;28;20189;-80
2021/11/22 06:15:47;;;;;;;42.30;21.17;;;6.40;99.90;;;;;;5090481;28;20190;-79
2021/11/22 06:18:14;;;;;;;41.63;21.00;;;6.40;99.90;;;;;;5089795;28;20209;-81
2021/11/22 06:20:40;;;;;;;39.50;19.77;;;6.40;99.90;;;;;;5087138;28;20186;-79
2021/11/22 06:23:06;;;;;;;42.67;20.23;;;6.40;99.90;;;;;;5089871;28;20709;-77
2021/11/22 06:25:33;;;;;;;44.30;20.77;;;6.40;99.90;;;;;;5086943;28;20224;-79
2021/11/22 06:27:59;;;;;;;38.13;19.77;;;6.40;99.90;;;;;;5084990;28;20195;-81
2021/11/22 06:30:25;;;;;;;36.47;19.30;;;6.40;99.90;;;;;;5085564;28;20198;-78
2021/11/22 06:32:53;;;;;;;38.27;19.67;;;6.40;99.90;;;;;;5087812;28;20231;-80
2021/11/22 06:35:20;;;;;;;39.47;19.17;;;6.40;99.90;;;;;;5079811;28;20697;-78
2021/11/22 06:37:47;;;;;;;41.70;19.80;;;6.40;99.90;;;;;;5085833;28;20198;-78
2021/11/22 06:40:13;;;;;;;39.13;18.80;;;6.40;99.90;;;;;;5087930;28;20639;-81
2021/11/22 06:42:39;;;;;;;36.23;18.57;;;6.40;99.90;;;;;;5090331;28;20182;-79
2021/11/22 06:45:06;;;;;;;33.67;18.17;;;6.40;99.90;;;;;;5090640;28;20181;-79
2021/11/22 06:47:33;;;;;;;37.17;18.27;;;6.40;99.90;;;;;;5090604;28;20190;-78
2021/11/22 06:49:59;;;;;;;38.43;18.73;;;6.50;99.90;;;;;;5090668;28;20654;-80
2021/11/22 06:52:24;;;;;;;40.63;19.27;;;6.50;99.90;;;;;;5089771;28;20186;-78
2021/11/22 06:54:52;;;;;;;48.67;20.67;;;6.50;99.90;;;;;;5088692;28;20553;-81
2021/11/22 06:57:18;;;;;;;37.37;18.90;;;6.50;99.90;;;;;;5090349;28;20182;-80
2021/11/22 06:59:44;;;;;;;45.60;20.33;;;6.50;99.90;;;;;;5089521;28;20210;-80
2021/11/22 07:02:15;;;;;;;34.60;18.10;;;6.50;99.90;;;;;;5088248;28;20203;-79
2021/11/22 07:04:44;;;;;;;37.63;18.07;;;6.50;99.90;;;;;;5089541;28;20535;-79
2021/11/22 07:07:11;;;;;;;38.40;18.07;;;6.50;99.90;;;;;;5089183;28;20674;-79
2021/11/22 07:09:37;;;;;;;38.83;20.37;;;6.50;99.90;;;;;;5089153;28;20261;-81
2021/11/22 07:12:03;;;;;;;39.13;19.37;;;6.50;99.90;;;;;;5088903;28;20373;-80
2021/11/22 07:14:30;;;;;;;35.87;18.27;;;6.50;99.90;;;;;;5087833;28;20175;-80
2021/11/22 07:16:56;;;;;;;39.47;18.63;;;6.50;99.90;;;;;;5082563;28;20274;-79
2021/11/22 07:19:22;;;;;;;32.77;17.53;;;6.50;99.90;;;;;;5088253;28;20281;-81
2021/11/22 07:21:49;;;;;;;34.37;17.73;;;6.50;99.90;;;;;;5088820;28;20277;-81
2021/11/22 07:24:14;;;;;;;30.40;15.57;;;6.50;99.90;;;;;;5088666;28;20204;-79
2021/11/22 07:26:40;;;;;;;29.13;14.57;;;6.50;99.90;;;;;;5086172;28;20599;-79
2021/11/22 07:29:07;;;;;;;35.93;16.07;;;6.50;99.90;;;;;;5087720;28;20221;-80
2021/11/22 07:31:33;;;;;;;32.80;16.97;;;6.50;99.90;;;;;;5087323;28;20182;-79
2021/11/22 07:33:59;;;;;;;33.00;17.20;;;6.40;99.90;;;;;;5082377;28;20198;-80
2021/11/22 07:36:25;;;;;;;32.90;17.57;;;6.40;99.90;;;;;;5081976;28;20178;-81
2021/11/22 07:38:51;;;;;;;30.63;16.90;;;6.40;99.90;;;;;;5094117;28;20314;-81
2021/11/22 07:41:17;;;;;;;38.40;18.40;;;6.40;99.90;;;;;;5068651;28;20564;-83
2021/11/22 07:43:43;;;;;;;35.43;17.53;;;6.50;99.90;;;;;;5083003;28;20209;-81
2021/11/22 07:46:09;;;;;;;33.90;17.63;;;6.50;99.90;;;;;;5071774;28;20190;-80
2021/11/22 07:48:34;;;;;;;38.70;17.57;;;6.50;99.90;;;;;;5071549;28;20683;-80
2021/11/22 07:51:02;;;;;;;35.53;19.03;;;6.50;99.90;;;;;;5088838;28;20207;-81
2021/11/22 07:53:28;;;;;;;44.27;20.93;;;6.50;99.90;;;;;;5088134;28;20674;-79
2021/11/22 07:55:54;;;;;;;51.50;22.23;;;;;;;;;;5085629;28;20186;-80
2021/11/22 07:58:20;;;;;;;30.17;14.60;;;6.70;99.90;;;;;;5104676;28;20609;-79
2021/11/22 08:00:47;;;;;;;23.07;11.67;;;6.70;99.90;;;;;;5083295;28;20186;-81
2021/11/22 08:03:12;;;;;;;26.30;13.90;;;6.50;99.90;;;;;;5087600;28;20179;-81
2021/11/22 08:05:39;;;;;;;21.57;12.27;;;6.60;99.90;;;;;;5091899;28;20274;-79
2021/11/22 08:08:04;;;;;;;24.17;12.23;;;6.50;99.90;;;;;;5090532;28;20748;-80
2021/11/22 08:10:33;;;;;;;22.97;11.47;;;6.50;99.90;;;;;;5090119;28;20190;-79
2021/11/22 08:13:05;;;;;;;21.63;12.10;;;6.50;99.90;;;;;;5069816;28;20176;-78
2021/11/22 08:15:33;;;;;;;26.90;13.73;;;6.50;99.90;;;;;;5088160;28;20256;-78
2021/11/22 08:18:01;;;;;;;25.57;12.53;;;6.60;99.90;;;;;;5092827;28;20182;-80
2021/11/22 08:20:27;;;;;;;29.33;13.60;;;;;;;;;;5094432;28;20189;-79
2021/11/22 08:22:53;;;;;;;21.77;11.27;;;;;;;;;;5094321;28;20179;-79
2021/11/22 08:25:22;;;;;;;32.97;15.80;;;6.70;99.90;;;;;;5093681;28;20182;-80
2021/11/22 08:27:52;;;;;;;21.23;11.20;;;6.70;99.90;;;;;;5089085;28;20178;-81
2021/11/22 08:30:18;;;;;;;22.00;11.63;;;;;;;;;;5093104;28;20186;-80
2021/11/22 08:32:46;;;;;;;22.60;12.13;;;6.90;99.90;;;;;;5094156;28;20182;-80
2021/11/22 08:35:12;;;;;;;21.53;12.17;;;;;;;;;;5094853;28;20195;-81
2021/11/22 08:37:39;;;;;;;20.23;11.37;;;6.80;99.90;;;;;;5093880;28;20263;-79
2021/11/22 08:40:08;;;;;;;18.23;10.63;;;6.80;99.90;;;;;;5094526;28;20238;-80
2021/11/22 08:42:34;;;;;;;18.87;11.27;;;;;;;;;;5083917;28;20194;-79
2021/11/22 08:45:00;;;;;;;17.67;9.77;;;;;;;;;;5094636;28;20178;-79
2021/11/22 08:47:27;;;;;;;17.63;10.10;;;6.80;99.90;;;;;;5094189;28;20190;-79
2021/11/22 08:49:54;;;;;;;17.80;9.47;;;;;;;;;;5094802;28;20190;-80
2021/11/22 08:52:20;;;;;;;21.30;10.47;;;;;;;;;;5093234;28;20187;-79
2021/11/22 08:54:46;;;;;;;21.37;11.23;;;;;;;;;;5092366;28;20174;-81
2021/11/22 08:57:12;;;;;;;22.43;11.37;;;;;;;;;;5092741;28;20201;-80
2021/11/22 08:59:40;;;;;;;17.40;8.97;;;;;;;;;;5091659;28;20206;-80
2021/11/22 09:02:07;;;;;;;17.27;9.57;;;;;;;;;;5071019;28;20193;-79
2021/11/22 09:04:33;;;;;;;17.90;10.37;;;;;;;;;;5086171;28;20266;-80
2021/11/22 09:06:59;;;;;;;16.87;9.43;;;;;;;;;;5082783;28;20199;-79
2021/11/22 09:09:25;;;;;;;20.80;10.77;;;;;;;;;;5088112;28;20183;-81
2021/11/22 09:11:51;;;;;;;13.73;7.67;;;;;;;;;;5088020;28;20185;-81
2021/11/22 09:14:17;;;;;;;15.50;9.70;;;;;;;;;;5085479;28;20229;-83
2021/11/22 09:16:44;;;;;;;20.90;10.20;;;;;;;;;;5093125;28;20686;-80
2021/11/22 09:19:10;;;;;;;20.20;9.03;;;;;;;;;;5080158;28;20226;-81
2021/11/22 09:21:37;;;;;;;23.73;11.47;;;7.10;99.90;;;;;;5083258;28;20171;-80
2021/11/22 09:24:04;;;;;;;18.77;10.03;;;7.10;99.90;;;;;;5084902;28;20179;-79
2021/11/22 09:26:30;;;;;;;21.20;11.37;;;;;;;;;;5092042;28;20190;-79
2021/11/22 09:28:56;;;;;;;22.07;10.93;;;;;;;;;;5091392;28;20598;-79
2021/11/22 09:31:23;;;;;;;20.53;8.63;;;;;;;;;;5091797;28;20183;-80
2021/11/22 09:33:52;;;;;;;12.13;7.67;;;;;;;;;;5084301;28;20678;-80
2021/11/22 09:36:18;;;;;;;14.60;7.83;;;;;;;;;;5085547;28;20190;-80
2021/11/22 09:38:45;;;;;;;11.30;7.17;;;;;;;;;;5085850;28;20206;-82
2021/11/22 09:41:11;;;;;;;12.90;7.90;;;;;;;;;;5091035;28;20716;-79
2021/11/22 09:43:37;;;;;;;15.93;8.83;;;;;;;;;;5084384;28;20187;-80
2021/11/22 09:46:04;;;;;;;14.63;9.73;;;6.80;99.90;;;;;;5092921;28;20170;-82
2021/11/22 09:48:29;;;;;;;16.43;10.00;;;6.90;99.90;;;;;;5092603;28;20193;-80
2021/11/22 09:50:56;;;;;;;19.97;11.47;;;6.80;99.90;;;;;;5092398;28;20273;-81
2021/11/22 09:53:22;;;;;;;15.80;10.33;;;6.80;99.90;;;;;;5090854;28;20264;-81
2021/11/22 09:55:48;;;;;;;19.57;10.83;;;6.80;99.90;;;;;;5081789;28;20670;-80
2021/11/22 09:58:15;;;;;;;17.50;10.93;;;6.90;99.90;;;;;;5088317;28;20698;-81
2021/11/22 10:00:51;;;;;;;17.83;11.53;;;6.90;99.90;;;;;;5095019;28;20598;-81
2021/11/22 10:03:19;;;;;;;22.97;13.23;;;6.90;99.90;;;;;;5095009;28;20235;-79
2021/11/22 10:05:47;;;;;;;17.43;11.67;;;6.80;99.90;;;;;;5094547;28;20257;-81
2021/11/22 10:08:14;;;;;;;14.93;9.70;;;6.80;99.90;;;;;;5094767;28;20230;-80
2021/11/22 10:10:54;;;;;;;15.60;8.13;;;6.80;99.90;;;;;;5094061;28;20649;-78
2021/11/22 10:13:32;;;;;;;11.97;6.80;;;6.70;99.90;;;;;;5094858;28;20630;-79
2021/11/22 10:16:05;;;;;;;11.77;6.60;;;6.60;99.90;;;;;;5085723;28;20198;-80
2021/11/22 10:18:33;;;;;;;8.57;5.37;;;6.50;99.90;;;;;;5083255;28;20302;-80
2021/11/22 10:21:06;;;;;;;9.87;5.10;;;6.30;99.90;;;;;;5083318;28;20183;-80
2021/11/22 10:23:32;;;;;;;10.93;5.73;;;6.20;99.90;;;;;;5074116;28;20209;-81
2021/11/22 10:25:58;;;;;;;8.00;4.97;;;6.20;99.90;;;;;;5090221;28;20175;-80
2021/11/22 10:28:30;;;;;;;7.40;4.67;;;6.10;99.90;;;;;;5090712;28;20186;-79
2021/11/22 10:31:02;;;;;;;9.50;5.07;;;6.00;99.90;;;;;;5092910;28;20228;-79
2021/11/22 10:33:34;;;;;;;7.23;4.83;;;5.90;99.90;;;;;;5092657;28;20738;-77
2021/11/22 10:36:03;;;;;;;7.07;4.43;;;5.90;99.90;;;;;;5092204;28;20178;-80
2021/11/22 10:38:34;;;;;;;10.63;4.93;;;5.90;99.90;;;;;;5091006;28;20206;-82
2021/11/22 10:41:05;;;;;;;9.67;5.23;;;5.80;99.90;;;;;;5092360;28;20469;-80
2021/11/22 10:43:51;;;;;;;8.60;5.23;;;5.80;99.90;;;;;;5090941;28;20543;-80
2021/11/22 10:46:41;;;;;;;8.30;3.97;;;5.90;99.90;;;;;;5088416;28;20228;-79
2021/11/22 10:49:16;;;;;;;7.23;4.50;;;5.80;99.90;;;;;;5086464;28;20239;-79
2021/11/22 10:51:46;;;;;;;5.60;4.37;;;5.80;99.90;;;;;;5090743;28;20972;-79
2021/11/22 10:54:20;;;;;;;5.70;4.63;;;5.80;99.90;;;;;;5089974;28;20175;-79
2021/11/22 10:56:53;;;;;;;11.63;6.07;;;5.80;99.90;;;;;;5089698;28;20182;-80
2021/11/22 10:59:23;;;;;;;9.83;5.30;;;5.80;99.90;;;;;;5089265;28;20566;-80
2021/11/22 11:01:51;;;;;;;12.03;5.33;;;5.80;99.90;;;;;;5072582;28;21660;-81
2021/11/22 11:04:20;;;;;;;8.00;4.87;;;5.80;99.90;;;;;;5087066;28;20227;-79
2021/11/22 11:06:54;;;;;;;15.97;5.53;;;5.80;99.90;;;;;;5083625;28;20185;-81
2021/11/22 11:09:40;;;;;;;13.43;5.33;;;5.80;99.90;;;;;;5088469;28;20777;-83
2021/11/22 11:12:12;;;;;;;13.93;6.23;;;5.90;99.90;;;;;;5088588;28;20179;-83
2021/11/22 11:15:01;;;;;;;9.70;5.47;;;5.80;99.90;;;;;;5090837;28;20170;-80
2021/11/22 11:17:34;;;;;;;10.47;6.53;;;5.80;99.90;;;;;;5091613;28;20190;-80
2021/11/22 11:20:11;;;;;;;11.57;5.80;;;5.90;99.90;;;;;;5092678;28;20256;-81
2021/11/22 11:22:37;;;;;;;7.63;6.00;;;5.90;99.90;;;;;;5090225;28;20174;-80
2021/11/22 11:25:05;;;;;;;11.27;7.80;;;5.90;99.90;;;;;;5084823;28;20178;-81
2021/11/22 11:27:32;;;;;;;12.23;7.53;;;5.90;99.90;;;;;;5085568;28;20179;-81
2021/11/22 11:29:58;;;;;;;12.80;7.00;;;5.90;99.90;;;;;;5083514;28;20171;-80
2021/11/22 11:32:25;;;;;;;13.50;7.60;;;5.90;99.90;;;;;;5086608;28;20642;-79
2021/11/22 11:34:52;;;;;;;14.00;7.37;;;5.90;99.90;;;;;;5087001;28;20186;-79
2021/11/22 11:37:42;;;;;;;12.97;6.70;;;5.90;99.90;;;;;;5088328;28;20253;-79
2021/11/22 11:40:24;;;;;;;9.43;5.80;;;6.00;99.90;;;;;;5090424;28;20210;-80
2021/11/22 11:43:11;;;;;;;12.37;6.33;;;6.00;99.90;;;;;;5091365;28;20228;-80
2021/11/22 11:45:43;;;;;;;9.70;6.17;;;6.00;99.90;;;;;;5084679;28;20191;-79
2021/11/22 11:48:46;;;;;;;11.00;6.57;;;5.90;99.90;;;;;;5088186;28;20232;-79
2021/11/22 11:51:17;;;;;;;22.50;12.30;;;5.90;99.90;;;;;;5087117;28;20196;-80
2021/11/22 11:54:05;;;;;;;13.37;8.00;;;5.90;99.90;;;;;;5086454;28;20210;-79
2021/11/22 11:56:46;;;;;;;12.47;7.80;;;5.90;99.90;;;;;;5086190;28;20183;-80
2021/11/22 11:59:20;;;;;;;17.00;8.27;;;5.90;99.90;;;;;;5086994;28;20202;-79
2021/11/22 12:01:55;;;;;;;15.47;8.07;;;5.90;99.90;;;;;;5084594;28;20277;-80
2021/11/22 12:04:21;;;;;;;13.87;8.23;;;5.90;99.90;;;;;;5087339;28;20176;-79
2021/11/22 12:07:00;;;;;;;13.30;8.10;;;6.00;99.90;;;;;;5089550;28;20166;-79
2021/11/22 12:09:33;;;;;;;14.17;8.27;;;6.00;99.90;;;;;;5082132;28;20186;-82
2021/11/22 12:12:21;;;;;;;10.57;7.00;;;6.00;99.90;;;;;;5079382;28;20167;-80
2021/11/22 12:14:57;;;;;;;10.63;6.93;;;6.00;99.90;;;;;;5088919;28;20166;-79
2021/11/22 12:17:35;;;;;;;8.13;5.73;;;6.10;99.90;;;;;;5089534;28;20174;-79
2021/11/22 12:20:05;;;;;;;8.00;5.73;;;6.10;99.90;;;;;;5089558;28;20206;-81
2021/11/22 12:22:36;;;;;;;9.47;6.73;;;6.10;99.90;;;;;;5086596;28;20264;-82
2021/11/22 12:25:02;;;;;;;7.47;5.20;;;6.10;99.90;;;;;;5083461;28;20179;-82
2021/11/22 12:27:28;;;;;;;9.90;5.73;;;6.10;99.90;;;;;;5084256;28;20179;-80
2021/11/22 12:29:59;;;;;;;8.60;5.10;;;6.10;99.90;;;;;;5086070;28;20182;-80
2021/11/22 12:32:34;;;;;;;12.47;5.20;;;6.20;99.90;;;;;;5086312;28;20174;-80
2021/11/22 12:35:05;;;;;;;10.40;5.97;;;6.20;99.90;;;;;;5090111;28;20517;-80
2021/11/22 12:37:35;;;;;;;8.83;5.57;;;6.20;99.90;;;;;;5090171;28;20681;-80
2021/11/22 12:40:15;;;;;;;13.73;6.43;;;6.20;99.90;;;;;;5086512;28;20544;-79
2021/11/22 12:42:55;;;;;;;11.47;5.50;;;6.20;99.90;;;;;;5088212;28;20178;-80
2021/11/22 12:45:22;;;;;;;11.17;6.20;;;6.20;99.90;;;;;;5087113;28;20166;-80
2021/11/22 12:47:48;;;;;;;7.80;4.93;;;6.20;99.90;;;;;;5090146;28;20174;-80
2021/11/22 12:50:20;;;;;;;11.30;5.37;;;6.20;99.90;;;;;;5088569;28;20189;-80
2021/11/22 12:53:16;;;;;;;12.10;6.47;;;6.20;99.90;;;;;;5090225;28;20235;-80